Time;durP1;ratioP1;P1;durP2;ratioP2;P2;SDS_P1;SDS_P2;PMS_P1;PMS_P2;Temp;Humidity;BMP_temperature;BMP_pressure;BME280_temperature;BME280_humidity;BME280_pressure;Samples;Min_cycle;Max_cycle;Signal;HPM_P1;HPM_P2
2022/07/30 00:02:19;;;;;;;8.93;4.45;;;;;;;;;;5008170;28;20073;-74
2022/07/30 00:04:45;;;;;;;5.80;3.85;;;;;;;;;;5001781;28;20564;-75
2022/07/30 00:07:12;;;;;;;5.22;3.45;;;;;;;;;;5007652;28;20505;-74
2022/07/30 00:09:38;;;;;;;5.75;3.67;;;;;;;;;;5008929;28;20041;-75
2022/07/30 00:12:05;;;;;;;5.20;3.75;;;;;;;;;;5003516;28;20125;-75
2022/07/30 00:14:31;;;;;;;6.85;3.72;;;;;;;;;;5009447;28;20398;-75
2022/07/30 00:16:57;;;;;;;6.82;4.07;;;;;;;;;;5005007;28;20066;-75
2022/07/30 00:19:23;;;;;;;7.55;3.63;;;;;;;;;;5010645;28;20117;-75
2022/07/30 00:21:49;;;;;;;6.00;3.60;;;;;;;;;;5003178;28;20060;-75
2022/07/30 00:24:15;;;;;;;6.93;4.05;;;;;;;;;;5001599;28;20052;-75
2022/07/30 00:26:41;;;;;;;7.03;3.55;;;;;;;;;;5000999;28;20077;-76
2022/07/30 00:29:08;;;;;;;7.00;3.97;;;;;;;;;;4995078;28;20081;-76
2022/07/30 00:31:34;;;;;;;7.70;4.28;;;;;;;;;;5004680;28;20490;-76
2022/07/30 00:34:00;;;;;;;5.45;4.30;;;;;;;;;;4999073;28;20045;-75
2022/07/30 00:36:26;;;;;;;7.05;4.70;;;;;;;;;;5003069;28;20046;-76
2022/07/30 00:38:52;;;;;;;6.10;4.63;;;;;;;;;;4996318;28;20483;-76
2022/07/30 00:41:18;;;;;;;7.43;4.78;;;;;;;;;;5000026;28;20108;-76
2022/07/30 00:43:44;;;;;;;5.40;4.47;;;;;;;;;;4995260;28;20054;-75
2022/07/30 00:46:10;;;;;;;6.47;4.05;;;;;;;;;;5008092;28;20054;-75
2022/07/30 00:48:36;;;;;;;5.65;4.05;;;;;;;;;;5005406;28;20077;-76
2022/07/30 00:51:03;;;;;;;5.90;4.00;;;;;;;;;;5001177;28;20335;-76
2022/07/30 00:53:29;;;;;;;6.97;4.22;;;;;;;;;;5003540;28;20051;-75
2022/07/30 00:55:55;;;;;;;6.65;4.75;;;;;;;;;;5002383;28;20052;-76
2022/07/30 00:58:21;;;;;;;4.80;4.22;;;;;;;;;;5004062;28;20050;-75
2022/07/30 01:00:47;;;;;;;7.05;4.55;;;;;;;;;;5007905;28;20104;-75
2022/07/30 01:03:13;;;;;;;6.80;4.53;;;;;;;;;;5004732;28;20038;-75
2022/07/30 01:05:39;;;;;;;8.15;3.80;;;;;;;;;;5007998;28;20477;-76
2022/07/30 01:08:05;;;;;;;5.68;3.70;;;;;;;;;;5002980;28;20081;-75
2022/07/30 01:10:31;;;;;;;8.40;3.60;;;;;;;;;;5005957;28;20045;-75
2022/07/30 01:12:58;;;;;;;9.18;3.67;;;;;;;;;;4999282;28;20080;-76
2022/07/30 01:15:24;;;;;;;6.20;3.35;;;;;;;;;;4997686;28;20137;-76
2022/07/30 01:17:51;;;;;;;5.10;3.05;;;;;;;;;;5000202;28;20046;-76
2022/07/30 01:20:20;;;;;;;5.35;3.10;;;;;;;;;;5003528;28;20096;-76
2022/07/30 01:23:05;;;;;;;5.38;3.17;;;;;;;;;;5005073;28;20422;-76
2022/07/30 01:25:31;;;;;;;5.82;2.78;;;;;;;;;;5005828;28;20100;-76
2022/07/30 01:28:05;;;;;;;5.38;2.97;;;;;;;;;;5008024;28;20045;-76
2022/07/30 01:30:33;;;;;;;8.20;3.40;;;;;;;;;;5010563;28;20157;-75
2022/07/30 01:32:59;;;;;;;9.00;2.80;;;;;;;;;;5003504;28;20049;-76
2022/07/30 01:35:26;;;;;;;7.45;3.08;;;;;;;;;;4993641;28;20050;-75
2022/07/30 01:37:57;;;;;;;6.45;3.47;;;;;;;;;;5001389;28;20157;-76
2022/07/30 01:40:23;;;;;;;7.95;3.50;;;;;;;;;;5001467;28;20096;-75
2022/07/30 01:42:54;;;;;;;8.10;2.92;;;;;;;;;;5023419;28;20410;-76
2022/07/30 01:45:21;;;;;;;6.15;3.17;;;;;;;;;;4997367;28;20038;-76
2022/07/30 01:47:48;;;;;;;5.40;2.95;;;;;;;;;;5003116;28;20049;-76
2022/07/30 01:50:15;;;;;;;6.85;3.00;;;;;;;;;;5011700;28;20073;-75
2022/07/30 01:52:45;;;;;;;5.28;2.80;;;;;;;;;;5002400;28;20045;-76
2022/07/30 01:55:14;;;;;;;6.60;3.13;;;;;;;;;;5003343;28;20093;-75
2022/07/30 01:57:40;;;;;;;6.82;3.13;;;;;;;;;;4998219;28;20048;-75
2022/07/30 02:00:06;;;;;;;6.75;2.70;;;;;;;;;;5002363;28;20414;-75
2022/07/30 02:02:34;;;;;;;8.48;3.17;;;;;;;;;;5005745;28;20050;-76
2022/07/30 02:05:01;;;;;;;6.10;3.30;;;;;;;;;;5009155;28;20038;-76
2022/07/30 02:07:34;;;;;;;6.68;2.90;;;;;;;;;;4999556;28;20486;-75
2022/07/30 02:10:27;;;;;;;8.45;3.45;;;;;;;;;;4999741;28;20486;-75
2022/07/30 02:12:56;;;;;;;5.53;2.78;;;;;;;;;;4993341;28;20061;-76
2022/07/30 02:15:22;;;;;;;4.68;3.00;;;;;;;;;;5020443;28;20054;-76
2022/07/30 02:18:00;;;;;;;9.88;3.28;;;;;;;;;;5002313;28;20077;-75
2022/07/30 02:20:28;;;;;;;7.47;2.83;;;;;;;;;;5007075;28;20050;-75
2022/07/30 02:22:56;;;;;;;8.27;3.70;;;;;;;;;;5003341;28;20512;-75
2022/07/30 02:25:23;;;;;;;6.03;3.65;;;;;;;;;;5003129;28;20965;-75
2022/07/30 02:27:51;;;;;;;8.13;3.70;;;;;;;;;;5007371;28;20037;-76
2022/07/30 02:30:17;;;;;;;6.60;3.50;;;;;;;;;;5010083;28;20508;-73
2022/07/30 02:32:44;;;;;;;6.10;3.65;;;;;;;;;;5005515;28;20439;-73
2022/07/30 02:35:13;;;;;;;5.88;3.75;;;;;;;;;;5003472;28;20062;-74
2022/07/30 02:37:41;;;;;;;6.93;4.18;;;;;;;;;;5001457;28;20584;-74
2022/07/30 02:40:08;;;;;;;6.57;3.63;;;;;;;;;;4996294;28;20654;-75
2022/07/30 02:42:35;;;;;;;6.25;3.67;;;;;;;;;;5002011;28;20054;-75
2022/07/30 02:45:02;;;;;;;6.05;3.55;;;;;;;;;;5005294;28;20057;-75
2022/07/30 02:47:29;;;;;;;5.25;3.35;;;;;;;;;;5003629;28;20042;-75
2022/07/30 02:49:55;;;;;;;9.60;3.40;;;;;;;;;;5006569;28;21030;-75
2022/07/30 02:52:22;;;;;;;8.70;3.65;;;;;;;;;;5010370;28;20041;-75
2022/07/30 02:54:49;;;;;;;5.53;3.40;;;;;;;;;;5012610;28;20116;-75
2022/07/30 02:57:16;;;;;;;4.25;3.13;;;;;;;;;;5000367;28;20058;-74
2022/07/30 02:59:43;;;;;;;5.82;3.35;;;;;;;;;;5007065;28;20030;-75
2022/07/30 03:02:10;;;;;;;8.85;3.60;;;;;;;;;;5003552;28;20046;-74
2022/07/30 03:04:37;;;;;;;7.18;3.13;;;;;;;;;;5012004;28;20061;-75
2022/07/30 03:07:04;;;;;;;3.53;2.80;;;;;;;;;;5003355;28;20112;-75
2022/07/30 03:09:30;;;;;;;4.05;2.78;;;;;;;;;;5006496;28;20073;-75
2022/07/30 03:11:57;;;;;;;5.95;3.20;;;;;;;;;;5010061;28;20145;-75
2022/07/30 03:14:23;;;;;;;9.48;3.30;;;;;;;;;;5004179;28;20375;-75
2022/07/30 03:16:53;;;;;;;8.48;3.20;;;;;;;;;;5000319;28;20050;-75
2022/07/30 03:19:21;;;;;;;6.88;3.15;;;;;;;;;;5008705;28;20117;-75
2022/07/30 03:21:48;;;;;;;5.88;2.92;;;;;;;;;;5009012;28;20054;-75
2022/07/30 03:24:15;;;;;;;4.60;3.00;;;;;;;;;;5008993;28;20045;-75
2022/07/30 03:26:42;;;;;;;8.77;3.05;;;;;;;;;;5010512;28;20104;-75
2022/07/30 03:29:08;;;;;;;7.97;3.08;;;;;;;;;;5006507;28;20042;-75
2022/07/30 03:31:35;;;;;;;6.43;3.30;;;;;;;;;;5008373;28;20482;-75
2022/07/30 03:34:01;;;;;;;6.15;3.40;;;;;;;;;;5004485;28;20100;-75
2022/07/30 03:36:28;;;;;;;4.28;3.13;;;;;;;;;;5001422;28;20042;-75
2022/07/30 03:38:54;;;;;;;5.80;3.30;;;;;;;;;;5006187;28;20173;-75
2022/07/30 03:41:21;;;;;;;7.28;4.18;;;;;;;;;;5011172;28;20053;-75
2022/07/30 03:43:48;;;;;;;6.75;3.30;;;;;;;;;;5002192;28;20050;-75
2022/07/30 03:46:15;;;;;;;8.45;3.30;;;;;;;;;;5008339;28;20401;-75
2022/07/30 03:48:41;;;;;;;7.90;3.58;;;;;;;;;;5009956;28;20036;-75
2022/07/30 03:51:09;;;;;;;6.88;3.53;;;;;;;;;;5003898;28;20046;-75
2022/07/30 03:53:35;;;;;;;8.88;3.70;;;;;;;;;;5011147;28;20045;-75
2022/07/30 03:56:01;;;;;;;7.43;3.63;;;;;;;;;;4998068;28;20137;-75
2022/07/30 03:58:27;;;;;;;5.18;3.10;;;;;;;;;;5003467;28;20425;-75
2022/07/30 04:00:53;;;;;;;8.45;3.92;;;;;;;;;;5003154;28;20052;-75
2022/07/30 04:03:27;;;;;;;7.70;3.53;;;;;;;;;;5004759;28;20478;-75
2022/07/30 04:05:53;;;;;;;4.22;3.50;;;;;;;;;;5003477;28;20399;-75
2022/07/30 04:08:19;;;;;;;5.97;3.47;;;;;;;;;;5002702;28;20042;-75
2022/07/30 04:10:45;;;;;;;6.82;3.40;;;;;;;;;;5007869;28;20129;-75
2022/07/30 04:13:11;;;;;;;7.10;3.78;;;;;;;;;;5001871;28;20710;-75
2022/07/30 04:15:43;;;;;;;6.93;3.55;;;;;;;;;;5008684;28;20429;-75
2022/07/30 04:18:10;;;;;;;7.07;3.45;;;;;;;;;;5000698;28;20030;-75
2022/07/30 04:20:39;;;;;;;7.57;3.72;;;;;;;;;;5001553;28;20056;-75
2022/07/30 04:23:05;;;;;;;9.73;3.40;;;;;;;;;;5007163;28;20050;-75
2022/07/30 04:25:32;;;;;;;8.02;3.60;;;;;;;;;;5006186;28;20054;-75
2022/07/30 04:27:58;;;;;;;9.13;3.65;;;;;;;;;;5009603;28;20188;-75
2022/07/30 04:30:25;;;;;;;6.85;3.53;;;;;;;;;;5006506;28;20064;-75
2022/07/30 04:32:51;;;;;;;5.85;3.45;;;;;;;;;;4996779;28;20129;-75
2022/07/30 04:35:17;;;;;;;6.22;3.50;;;;;;;;;;5005731;28;20060;-75
2022/07/30 04:37:43;;;;;;;7.28;3.72;;;;;;;;;;5007409;28;20046;-75
2022/07/30 04:40:09;;;;;;;8.63;3.67;;;;;;;;;;5003752;28;20140;-75
2022/07/30 04:42:35;;;;;;;9.15;3.70;;;;;;;;;;4964606;28;1083608;-75
2022/07/30 04:45:01;;;;;;;7.57;3.63;;;;;;;;;;5004399;28;20053;-75
2022/07/30 04:47:27;;;;;;;6.97;3.25;;;;;;;;;;4997788;28;20482;-75
2022/07/30 04:49:53;;;;;;;11.35;3.72;;;;;;;;;;4998032;28;20049;-75
2022/07/30 04:52:21;;;;;;;9.25;4.15;;;;;;;;;;4998037;28;20084;-75
2022/07/30 04:54:56;;;;;;;9.77;3.85;;;;;;;;;;5004565;28;20042;-75
2022/07/30 04:57:24;;;;;;;6.65;3.70;;;;;;;;;;5006180;28;20048;-75
2022/07/30 04:59:50;;;;;;;7.85;4.07;;;;;;;;;;5005093;28;20093;-74
2022/07/30 05:02:17;;;;;;;7.97;4.32;;;;;;;;;;4999837;28;20052;-75
2022/07/30 05:04:44;;;;;;;7.55;3.85;;;;;;;;;;5005668;28;20046;-75
2022/07/30 05:07:12;;;;;;;7.45;4.15;;;;;;;;;;4998645;28;20066;-75
2022/07/30 05:09:38;;;;;;;8.98;4.40;;;;;;;;;;5008277;28;20096;-75
2022/07/30 05:12:05;;;;;;;8.10;3.95;;;;;;;;;;5008133;28;20068;-75
2022/07/30 05:14:31;;;;;;;5.75;4.07;;;;;;;;;;5004961;28;20056;-75
2022/07/30 05:16:57;;;;;;;7.03;4.47;;;;;;;;;;4995592;28;20050;-75
2022/07/30 05:19:23;;;;;;;9.95;4.40;;;;;;;;;;5004260;28;20045;-74
2022/07/30 05:21:50;;;;;;;6.50;4.45;;;;;;;;;;4993177;28;20061;-75
2022/07/30 05:24:16;;;;;;;7.15;4.10;;;;;;;;;;5005378;28;20085;-75
2022/07/30 05:26:42;;;;;;;8.32;4.75;;;;;;;;;;5003714;28;20503;-75
2022/07/30 05:29:08;;;;;;;7.53;4.40;;;;;;;;;;5003768;28;20050;-74
2022/07/30 05:31:34;;;;;;;9.60;4.68;;;;;;;;;;5001080;28;20410;-74
2022/07/30 05:34:00;;;;;;;8.30;4.57;;;;;;;;;;5004997;28;20042;-75
2022/07/30 05:36:27;;;;;;;9.25;4.20;;;;;;;;;;5003789;28;20042;-75
2022/07/30 05:38:53;;;;;;;5.85;3.95;;;;;;;;;;5001704;28;20049;-75
2022/07/30 05:41:19;;;;;;;8.18;4.25;;;;;;;;;;5006029;28;20049;-75
2022/07/30 05:43:45;;;;;;;6.82;4.30;;;;;;;;;;5007879;28;20081;-74
2022/07/30 05:46:11;;;;;;;7.18;4.40;;;;;;;;;;5008190;28;20519;-75
2022/07/30 05:48:37;;;;;;;6.78;4.20;;;;;;;;;;5006789;28;20046;-74
2022/07/30 05:51:03;;;;;;;8.80;4.28;;;;;;;;;;5003725;28;20042;-75
2022/07/30 05:53:30;;;;;;;5.80;4.18;;;;;;;;;;5004324;28;20373;-74
2022/07/30 05:55:56;;;;;;;9.48;4.05;;;;;;;;;;5001504;28;20054;-74
2022/07/30 05:58:22;;;;;;;7.13;3.85;;;;;;;;;;4998696;28;20039;-75
2022/07/30 06:00:48;;;;;;;7.60;4.50;;;;;;;;;;5002793;28;20149;-75
2022/07/30 06:03:14;;;;;;;7.55;4.10;;;;;;;;;;5009274;28;20041;-75
2022/07/30 06:05:40;;;;;;;5.97;3.63;;;;;;;;;;5006353;28;20128;-75
2022/07/30 06:08:06;;;;;;;5.70;3.90;;;;;;;;;;5008480;28;20060;-75
2022/07/30 06:10:33;;;;;;;7.15;3.60;;;;;;;;;;5005458;28;20092;-75
2022/07/30 06:12:59;;;;;;;6.38;4.00;;;;;;;;;;5005040;28;20386;-75
2022/07/30 06:15:25;;;;;;;11.32;4.22;;;;;;;;;;5005894;28;20038;-75
2022/07/30 06:17:51;;;;;;;4.10;3.40;;;;;;;;;;5005830;28;20058;-75
2022/07/30 06:20:17;;;;;;;6.28;3.60;;;;;;;;;;5000428;28;20048;-76
2022/07/30 06:22:43;;;;;;;6.43;3.88;;;;;;;;;;5007938;28;20379;-76
2022/07/30 06:25:10;;;;;;;7.88;4.30;;;;;;;;;;4999733;28;20046;-75
2022/07/30 06:27:36;;;;;;;8.88;3.85;;;;;;;;;;5002967;28;20129;-75
2022/07/30 06:30:06;;;;;;;6.88;3.95;;;;;;;;;;4994212;28;20046;-75
2022/07/30 06:32:32;;;;;;;5.78;3.83;;;;;;;;;;5000248;28;20125;-75
2022/07/30 06:34:59;;;;;;;6.32;4.07;;;;;;;;;;5004976;28;20121;-75
2022/07/30 06:37:25;;;;;;;5.18;3.45;;;;;;;;;;5003521;28;20086;-75
2022/07/30 06:39:51;;;;;;;5.13;3.17;;;;;;;;;;5002709;28;20041;-75
2022/07/30 06:42:17;;;;;;;7.95;3.47;;;;;;;;;;4995490;28;20061;-76
2022/07/30 06:44:43;;;;;;;6.03;3.60;;;;;;;;;;5001155;28;20044;-75
2022/07/30 06:47:09;;;;;;;3.60;3.22;;;;;;;;;;5005979;28;20045;-76
2022/07/30 06:49:36;;;;;;;3.63;3.28;;;;;;;;;;4992693;28;20399;-76
2022/07/30 06:52:02;;;;;;;5.13;3.50;;;;;;;;;;4996935;28;20049;-76
2022/07/30 06:54:28;;;;;;;5.55;3.25;;;;;;;;;;4999515;28;20057;-76
2022/07/30 06:56:54;;;;;;;3.88;3.20;;;;;;;;;;4999770;28;20042;-76
2022/07/30 06:59:20;;;;;;;6.38;3.10;;;;;;;;;;5003507;28;20041;-75
2022/07/30 07:01:46;;;;;;;3.78;3.00;;;;;;;;;;4998087;28;20046;-76
2022/07/30 07:04:12;;;;;;;3.10;2.88;;;;;;;;;;5002176;28;20101;-76
2022/07/30 07:06:38;;;;;;;4.72;3.17;;;;;;;;;;4997160;28;20054;-75
2022/07/30 07:09:04;;;;;;;4.88;3.17;;;;;;;;;;5003544;28;20529;-76
2022/07/30 07:11:30;;;;;;;4.70;3.13;;;;;;;;;;5005946;28;20128;-76
2022/07/30 07:13:56;;;;;;;7.70;3.60;;;;;;;;;;5003188;28;20046;-76
2022/07/30 07:16:25;;;;;;;3.95;3.10;;;;;;;;;;5007678;28;20073;-76
2022/07/30 07:18:52;;;;;;;5.03;3.35;;;;;;;;;;5000211;28;20050;-75
2022/07/30 07:21:18;;;;;;;4.90;3.20;;;;;;;;;;4999293;28;20052;-75
2022/07/30 07:23:47;;;;;;;7.13;3.58;;;;;;;;;;5001172;28;20121;-76
2022/07/30 07:26:13;;;;;;;3.50;2.97;;;;;;;;;;5004368;28;20103;-75
2022/07/30 07:28:39;;;;;;;7.40;3.33;;;;;;;;;;5004433;28;20054;-75
2022/07/30 07:31:05;;;;;;;5.43;3.60;;;;;;;;;;5002224;28;20045;-75
2022/07/30 07:33:31;;;;;;;5.22;3.47;;;;;;;;;;4998188;28;20046;-75
2022/07/30 07:35:57;;;;;;;4.25;3.38;;;;;;;;;;5006828;28;20694;-75
2022/07/30 07:38:23;;;;;;;4.53;3.33;;;;;;;;;;4995737;28;20046;-75
2022/07/30 07:40:49;;;;;;;4.95;3.55;;;;;;;;;;5004618;28;20050;-75
2022/07/30 07:43:15;;;;;;;4.10;3.30;;;;;;;;;;5005931;28;20862;-75
2022/07/30 07:45:42;;;;;;;6.88;3.30;;;;;;;;;;4996666;28;20050;-75
2022/07/30 07:48:08;;;;;;;4.38;2.90;;;;;;;;;;4998878;28;20048;-75
2022/07/30 07:50:34;;;;;;;5.47;3.38;;;;;;;;;;5003506;28;20049;-77
2022/07/30 07:53:00;;;;;;;5.72;3.38;;;;;;;;;;4998899;28;20117;-75
2022/07/30 07:55:26;;;;;;;5.10;3.17;;;;;;;;;;4993485;28;20077;-86
2022/07/30 07:57:52;;;;;;;3.95;2.88;;;;;;;;;;5005815;28;20052;-75
2022/07/30 08:00:19;;;;;;;4.03;2.88;;;;;;;;;;4999983;28;20483;-84
2022/07/30 08:02:45;;;;;;;5.57;2.95;;;;;;;;;;4999751;28;20092;-77
2022/07/30 08:05:11;;;;;;;7.10;3.20;;;;;;;;;;5007280;28;20572;-77
2022/07/30 08:07:38;;;;;;;3.70;2.90;;;;;;;;;;5002095;28;20061;-78
2022/07/30 08:10:04;;;;;;;5.35;3.20;;;;;;;;;;5010870;28;20042;-79
2022/07/30 08:12:30;;;;;;;6.07;3.25;;;;;;;;;;5009507;28;20147;-77
2022/07/30 08:14:57;;;;;;;3.65;2.95;;;;;;;;;;5003228;28;20050;-77
2022/07/30 08:17:23;;;;;;;4.35;2.70;;;;;;;;;;5007873;28;20045;-77
2022/07/30 08:19:49;;;;;;;6.57;3.20;;;;;;;;;;5012954;28;20482;-77
2022/07/30 08:22:15;;;;;;;6.28;2.83;;;;;;;;;;5003676;28;20053;-76
2022/07/30 08:24:41;;;;;;;3.10;2.72;;;;;;;;;;4998789;28;20438;-76
2022/07/30 08:27:07;;;;;;;5.07;2.90;;;;;;;;;;5007489;28;20054;-76
2022/07/30 08:29:33;;;;;;;6.18;3.05;;;;;;;;;;5005726;28;20435;-75
2022/07/30 08:32:00;;;;;;;5.20;2.92;;;;;;;;;;5009364;28;20045;-76
2022/07/30 08:34:26;;;;;;;4.93;2.80;;;;;;;;;;5005385;28;20050;-75
2022/07/30 08:36:52;;;;;;;3.55;2.90;;;;;;;;;;5012055;28;20041;-75
2022/07/30 08:39:18;;;;;;;5.25;3.20;;;;;;;;;;5009215;28;20049;-76
2022/07/30 08:41:44;;;;;;;6.15;2.90;;;;;;;;;;5002026;28;20116;-78
2022/07/30 08:44:11;;;;;;;3.60;2.80;;;;;;;;;;5008453;28;20080;-75
2022/07/30 08:46:40;;;;;;;3.67;2.72;;;;;;;;;;5003968;28;20449;-74
2022/07/30 08:49:07;;;;;;;4.22;3.25;;;;;;;;;;5008788;28;20053;-74
2022/07/30 08:51:34;;;;;;;6.40;3.00;;;;;;;;;;5005562;28;20049;-72
2022/07/30 08:54:00;;;;;;;4.57;2.78;;;;;;;;;;5000284;28;20084;-75
2022/07/30 08:56:26;;;;;;;4.35;2.90;;;;;;;;;;5008090;28;20068;-76
2022/07/30 08:58:52;;;;;;;4.25;3.35;;;;;;;;;;5002561;28;20050;-75
2022/07/30 09:01:18;;;;;;;8.30;3.10;;;;;;;;;;4999674;28;20374;-74
2022/07/30 09:03:44;;;;;;;3.78;3.05;;;;;;;;;;4998024;28;20648;-76
2022/07/30 09:06:11;;;;;;;6.28;3.10;;;;;;;;;;4999656;28;20124;-74
2022/07/30 09:08:37;;;;;;;4.60;2.60;;;;;;;;;;5000696;28;20045;-73
2022/07/30 09:11:03;;;;;;;4.22;2.30;;;;;;;;;;5007246;28;20045;-73
2022/07/30 09:13:30;;;;;;;6.20;2.50;;;;;;;;;;4997504;28;20096;-73
2022/07/30 09:15:56;;;;;;;5.07;2.55;;;;;;;;;;5000307;28;20138;-74
2022/07/30 09:18:30;;;;;;;5.18;2.58;;;;;;;;;;5009625;28;20052;-74
2022/07/30 09:20:57;;;;;;;3.00;2.60;;;;;;;;;;5008821;28;20112;-73
2022/07/30 09:23:23;;;;;;;4.25;2.45;;;;;;;;;;5004013;28;20064;-74
2022/07/30 09:25:50;;;;;;;4.20;2.38;;;;;;;;;;5005782;28;20050;-73
2022/07/30 09:28:16;;;;;;;3.10;2.38;;;;;;;;;;5005356;28;20050;-73
2022/07/30 09:30:52;;;;;;;5.43;2.67;;;;;;;;;;5002457;28;20052;-74
2022/07/30 09:33:38;;;;;;;4.63;2.63;;;;;;;;;;5003575;28;20057;-77
2022/07/30 09:36:05;;;;;;;3.92;2.35;;;;;;;;;;4998984;28;20445;-73
2022/07/30 09:38:45;;;;;;;2.53;2.15;;;;;;;;;;4996557;28;20105;-73
2022/07/30 09:41:11;;;;;;;3.40;2.30;;;;;;;;;;5004974;28;20379;-73
2022/07/30 09:43:43;;;;;;;3.75;2.30;;;;;;;;;;5005334;28;20046;-74
2022/07/30 09:46:09;;;;;;;3.40;2.42;;;;;;;;;;5007235;28;20038;-74
2022/07/30 09:48:35;;;;;;;4.18;2.05;;;;;;;;;;4994138;28;20034;-74
2022/07/30 09:51:01;;;;;;;2.05;1.92;;;;;;;;;;4995363;28;20052;-74
2022/07/30 09:53:27;;;;;;;2.58;1.95;;;;;;;;;;4993889;28;20045;-75
2022/07/30 09:55:53;;;;;;;2.20;2.00;;;;;;;;;;4994561;28;20050;-75
2022/07/30 09:58:19;;;;;;;3.67;2.15;;;;;;;;;;5000278;28;20050;-72
2022/07/30 10:00:45;;;;;;;3.70;2.25;;;;;;;;;;5006642;28;20403;-74
2022/07/30 10:03:20;;;;;;;3.90;2.10;;;;;;;;;;4999677;28;20093;-76
2022/07/30 10:05:53;;;;;;;3.17;2.22;;;;;;;;;;4997160;28;20050;-75
2022/07/30 10:08:20;;;;;;;3.35;2.30;;;;;;;;;;5005065;28;20478;-74
2022/07/30 10:10:46;;;;;;;3.10;1.90;;;;;;;;;;5008622;28;20104;-74
2022/07/30 10:13:13;;;;;;;2.83;2.10;;;;;;;;;;5005541;28;20132;-74
2022/07/30 10:15:40;;;;;;;4.97;2.10;;;;;;;;;;5004563;28;20046;-74
2022/07/30 10:18:06;;;;;;;2.40;1.83;;;;;;;;;;4993061;28;20438;-74
2022/07/30 10:20:32;;;;;;;4.53;2.15;;;;;;;;;;4991767;28;20038;-74
2022/07/30 10:22:58;;;;;;;3.20;2.45;;;;;;;;;;4999563;28;20054;-74
2022/07/30 10:25:26;;;;;;;4.30;2.00;;;;;;;;;;5001674;28;20042;-74
2022/07/30 10:27:52;;;;;;;2.45;1.90;;;;;;;;;;5002276;28;20064;-73
2022/07/30 10:30:19;;;;;;;5.88;2.17;;;;;;;;;;4995906;28;20049;-73
2022/07/30 10:32:45;;;;;;;3.83;1.80;;;;;;;;;;5003594;28;20046;-74
2022/07/30 10:35:12;;;;;;;2.72;2.00;;;;;;;;;;5001982;28;20077;-73
2022/07/30 10:37:40;;;;;;;2.35;2.03;;;;;;;;;;4998537;28;20080;-73
2022/07/30 10:40:24;;;;;;;3.00;1.83;;;;;;;;;;5004817;28;20061;-73
2022/07/30 10:42:59;;;;;;;2.63;1.83;;;;;;;;;;5007343;28;20062;-74
2022/07/30 10:45:28;;;;;;;3.00;2.15;;;;;;;;;;5000247;28;20397;-74
2022/07/30 10:47:54;;;;;;;4.28;2.10;;;;;;;;;;5003902;28;20470;-73
2022/07/30 10:50:25;;;;;;;3.00;2.10;;;;;;;;;;5007503;28;20045;-73
2022/07/30 10:52:54;;;;;;;3.95;2.10;;;;;;;;;;4994939;28;20055;-73
2022/07/30 10:55:22;;;;;;;3.22;1.90;;;;;;;;;;4999525;28;20044;-73
2022/07/30 10:57:58;;;;;;;2.42;2.20;;;;;;;;;;4993123;28;20054;-74
2022/07/30 11:00:27;;;;;;;4.75;2.20;;;;;;;;;;5000155;28;20506;-73
2022/07/30 11:03:11;;;;;;;2.75;2.05;;;;;;;;;;5007818;28;20393;-73
2022/07/30 11:05:37;;;;;;;3.70;2.33;;;;;;;;;;5002512;28;20042;-73
2022/07/30 11:08:25;;;;;;;3.75;1.83;;;;;;;;;;4990428;28;20490;-73
2022/07/30 11:10:51;;;;;;;2.72;1.90;;;;;;;;;;4997739;28;20050;-73
2022/07/30 11:13:17;;;;;;;2.10;1.90;;;;;;;;;;5002439;28;20498;-73
2022/07/30 11:16:00;;;;;;;2.90;2.03;;;;;;;;;;5001080;28;20038;-73
2022/07/30 11:18:27;;;;;;;2.40;2.20;;;;;;;;;;5000221;28;20413;-73
2022/07/30 11:21:11;;;;;;;2.10;1.77;;;;;;;;;;5011772;28;20052;-73
2022/07/30 11:23:38;;;;;;;2.20;2.00;;;;;;;;;;4999462;28;20050;-73
2022/07/30 11:26:05;;;;;;;4.05;1.98;;;;;;;;;;5009979;28;20042;-73
2022/07/30 11:28:34;;;;;;;2.17;2.00;;;;;;;;;;5010798;28;20778;-73
2022/07/30 11:31:00;;;;;;;2.10;1.67;;;;;;;;;;5010094;28;20096;-74
2022/07/30 11:33:27;;;;;;;1.88;1.77;;;;;;;;;;5001492;28;20041;-76
2022/07/30 11:36:11;;;;;;;2.47;1.98;;;;;;;;;;4998733;28;20045;-75
2022/07/30 11:38:57;;;;;;;4.55;1.92;;;;;;;;;;5011122;28;20453;-74
2022/07/30 11:41:23;;;;;;;2.90;2.00;;;;;;;;;;5004266;28;20405;-74
2022/07/30 11:44:09;;;;;;;3.15;2.10;;;;;;;;;;5010808;28;20547;-74
2022/07/30 11:46:35;;;;;;;3.78;3.25;;;;;;;;;;5011718;28;20046;-74
2022/07/30 11:49:07;;;;;;;2.55;1.92;;;;;;;;;;4995580;28;20050;-74
2022/07/30 11:51:43;;;;;;;3.90;1.90;;;;;;;;;;5001899;28;20048;-75
2022/07/30 11:54:10;;;;;;;2.03;1.80;;;;;;;;;;5014064;28;20458;-74
2022/07/30 11:56:37;;;;;;;1.90;1.80;;;;;;;;;;5012187;28;20054;-74
2022/07/30 11:59:04;;;;;;;2.90;2.20;;;;;;;;;;5008425;28;20128;-75
2022/07/30 12:01:30;;;;;;;3.35;1.90;;;;;;;;;;5008737;28;20048;-75
2022/07/30 12:03:59;;;;;;;1.92;1.77;;;;;;;;;;5012693;28;20045;-75
2022/07/30 12:06:25;;;;;;;3.55;2.00;;;;;;;;;;5012112;28;20073;-75
2022/07/30 12:08:52;;;;;;;3.20;1.67;;;;;;;;;;5014260;28;20500;-75
2022/07/30 12:11:19;;;;;;;4.50;2.03;;;;;;;;;;5002055;28;20583;-75
2022/07/30 12:13:55;;;;;;;2.55;1.77;;;;;;;;;;5012320;28;20052;-75
2022/07/30 12:16:21;;;;;;;3.92;1.90;;;;;;;;;;5011613;28;20605;-75
2022/07/30 12:18:47;;;;;;;2.55;1.70;;;;;;;;;;5000950;28;20046;-75
2022/07/30 12:21:17;;;;;;;2.95;1.98;;;;;;;;;;4996798;28;20064;-75
2022/07/30 12:23:58;;;;;;;2.67;1.83;;;;;;;;;;5005646;28;20045;-75
2022/07/30 12:26:28;;;;;;;2.80;2.10;;;;;;;;;;4995188;28;20057;-75
2022/07/30 12:28:55;;;;;;;3.38;1.92;;;;;;;;;;5013505;28;20061;-75
2022/07/30 12:31:22;;;;;;;2.38;1.98;;;;;;;;;;5011059;28;20046;-75
2022/07/30 12:33:48;;;;;;;3.42;2.00;;;;;;;;;;5013301;28;20137;-75
2022/07/30 12:36:30;;;;;;;2.78;1.90;;;;;;;;;;5004557;28;20054;-75
2022/07/30 12:38:56;;;;;;;3.22;2.13;;;;;;;;;;5012441;28;20156;-75
2022/07/30 12:41:23;;;;;;;4.13;1.95;;;;;;;;;;5004566;28;20042;-75
2022/07/30 12:43:52;;;;;;;2.47;1.80;;;;;;;;;;5012230;28;20054;-75
2022/07/30 12:46:25;;;;;;;3.85;1.92;;;;;;;;;;5004165;28;20084;-75
2022/07/30 12:48:54;;;;;;;2.42;2.13;;;;;;;;;;5005497;28;20469;-74
2022/07/30 12:51:31;;;;;;;4.13;1.73;;;;;;;;;;5002101;28;20052;-75
2022/07/30 12:53:58;;;;;;;2.85;2.10;;;;;;;;;;4993585;28;20053;-75
2022/07/30 12:56:25;;;;;;;1.80;1.67;;;;;;;;;;5007947;28;20085;-75
2022/07/30 12:58:51;;;;;;;2.67;1.90;;;;;;;;;;5010494;28;20050;-75
2022/07/30 13:01:17;;;;;;;2.45;1.75;;;;;;;;;;4993430;28;20060;-75
2022/07/30 13:03:44;;;;;;;2.13;1.50;;;;;;;;;;5010573;28;20050;-75
2022/07/30 13:06:22;;;;;;;2.28;2.00;;;;;;;;;;5012140;28;20045;-75
2022/07/30 13:08:48;;;;;;;2.67;1.80;;;;;;;;;;4998920;28;20050;-75
2022/07/30 13:11:14;;;;;;;2.40;1.77;;;;;;;;;;5007719;28;20129;-75
2022/07/30 13:13:40;;;;;;;2.38;1.63;;;;;;;;;;5011189;28;20371;-75
2022/07/30 13:16:07;;;;;;;2.08;1.73;;;;;;;;;;5006225;28;20057;-76
2022/07/30 13:18:33;;;;;;;2.97;1.55;;;;;;;;;;5002907;28;20540;-76
2022/07/30 13:21:00;;;;;;;2.65;1.73;;;;;;;;;;5013442;28;20048;-75
2022/07/30 13:23:28;;;;;;;1.92;1.67;;;;;;;;;;5008789;28;20054;-76
2022/07/30 13:25:55;;;;;;;3.13;1.88;;;;;;;;;;5010146;28;20248;-76
2022/07/30 13:28:21;;;;;;;2.35;1.80;;;;;;;;;;5010969;28;20505;-76
2022/07/30 13:30:47;;;;;;;1.88;1.70;;;;;;;;;;5002293;28;20058;-75
2022/07/30 13:33:13;;;;;;;4.07;1.77;;;;;;;;;;4998366;28;20042;-75
2022/07/30 13:35:39;;;;;;;3.40;3.10;;;;;;;;;;5011715;28;20045;-75
2022/07/30 13:38:06;;;;;;;1.88;1.77;;;;;;;;;;5011843;28;20493;-75
2022/07/30 13:40:32;;;;;;;2.63;1.90;;;;;;;;;;5002112;28;20046;-75
2022/07/30 13:43:02;;;;;;;2.30;1.60;;;;;;;;;;5006484;28;20061;-76
2022/07/30 13:45:28;;;;;;;2.50;1.65;;;;;;;;;;5011671;28;20054;-76
2022/07/30 13:47:54;;;;;;;2.55;1.60;;;;;;;;;;4997898;28;20056;-75
2022/07/30 13:50:20;;;;;;;2.47;1.73;;;;;;;;;;5006757;28;20046;-75
2022/07/30 13:52:46;;;;;;;2.08;1.70;;;;;;;;;;5002607;28;20046;-76
2022/07/30 13:55:12;;;;;;;2.08;1.60;;;;;;;;;;4994086;28;20042;-75
2022/07/30 13:57:38;;;;;;;2.15;1.67;;;;;;;;;;5003344;28;20046;-75
2022/07/30 14:00:08;;;;;;;2.25;1.70;;;;;;;;;;5010417;28;20092;-75
2022/07/30 14:02:34;;;;;;;1.77;1.67;;;;;;;;;;4993978;28;20042;-75
2022/07/30 14:05:05;;;;;;;1.70;1.55;;;;;;;;;;5006581;28;20050;-75
2022/07/30 14:07:32;;;;;;;2.75;1.60;;;;;;;;;;5012845;28;20089;-76
2022/07/30 14:09:58;;;;;;;4.43;1.55;;;;;;;;;;5010931;28;20038;-75
2022/07/30 14:12:24;;;;;;;2.63;1.60;;;;;;;;;;5001677;28;20045;-76
2022/07/30 14:14:50;;;;;;;4.88;1.90;;;;;;;;;;5000949;28;20066;-75
2022/07/30 14:17:17;;;;;;;2.38;1.80;;;;;;;;;;4996061;28;20054;-76
2022/07/30 14:19:43;;;;;;;2.72;1.58;;;;;;;;;;5004299;28;20045;-75
2022/07/30 14:22:09;;;;;;;1.90;1.70;;;;;;;;;;5006050;28;20049;-75
2022/07/30 14:24:35;;;;;;;7.10;6.18;;;;;;;;;;5000754;28;20042;-74
2022/07/30 14:27:01;;;;;;;2.90;1.90;;;;;;;;;;4997508;28;20044;-74
2022/07/30 14:29:27;;;;;;;1.63;1.52;;;;;;;;;;5006281;28;20052;-74
2022/07/30 14:31:53;;;;;;;1.73;1.63;;;;;;;;;;5002023;28;20187;-74
2022/07/30 14:34:19;;;;;;;2.80;1.80;;;;;;;;;;4999261;28;20136;-74
2022/07/30 14:36:45;;;;;;;1.60;1.50;;;;;;;;;;5001992;28;20042;-75
2022/07/30 14:39:11;;;;;;;3.88;1.70;;;;;;;;;;5005862;28;20382;-75
2022/07/30 14:41:37;;;;;;;2.78;1.77;;;;;;;;;;4997455;28;20049;-75
2022/07/30 14:44:04;;;;;;;2.00;1.58;;;;;;;;;;5009835;28;20187;-75
2022/07/30 14:46:30;;;;;;;2.40;1.70;;;;;;;;;;5013592;28;20042;-75